createdAt,value
2023-01-03T00:00:31.869Z,101162.12
2023-01-03T00:05:57.397Z,101169.91
2023-01-03T00:11:23.698Z,101176.83
2023-01-03T00:16:46.116Z,101213.14
2023-01-03T00:22:08.818Z,101172.84
2023-01-03T00:27:32.764Z,101181.53
2023-01-03T00:32:55.069Z,101198.12
2023-01-03T00:38:17.291Z,101189.49
2023-01-03T00:43:39.853Z,101214.67
2023-01-03T00:49:02.301Z,101227.69
2023-01-03T00:54:26.613Z,101221.92
2023-01-03T00:59:49.019Z,101228.53
2023-01-03T01:05:12.744Z,101236.84
2023-01-03T01:10:36.254Z,101248.07
2023-01-03T01:15:58.485Z,101270.23
2023-01-03T01:21:27.947Z,101278.81
2023-01-03T01:26:50.786Z,101285.91
2023-01-03T01:32:13.537Z,101289.62
2023-01-03T01:37:35.783Z,101289.29
2023-01-03T01:43:16.527Z,101303.81
2023-01-03T01:48:38.695Z,101301.14
2023-01-03T01:54:02.604Z,101321.78
2023-01-03T01:59:28.988Z,101315.90
2023-01-03T02:04:55.286Z,101321.67
2023-01-03T02:10:18.552Z,101326.25
2023-01-03T02:16:07.816Z,101315.37
2023-01-03T02:21:46.535Z,101305.50
2023-01-03T02:27:16.511Z,101308.59
2023-01-03T02:32:35.817Z,101310.81
2023-01-03T02:38:05.784Z,101313.86
2023-01-03T02:43:33.962Z,101324.64
2023-01-03T02:49:06.300Z,101330.98
2023-01-03T02:54:33.159Z,101343.49
2023-01-03T03:00:10.175Z,101339.52
2023-01-03T03:05:52.378Z,101361.81
2023-01-03T03:11:32.608Z,101367.24
2023-01-03T03:16:59.889Z,101373.92
2023-01-03T03:23:18.364Z,101375.64
2023-01-03T03:28:44.684Z,101376.04
2023-01-03T03:34:14.467Z,101380.99
2023-01-03T03:39:56.495Z,101394.74
2023-01-03T03:45:26.332Z,101411.66
2023-01-03T03:50:59.421Z,101393.10
2023-01-03T03:56:31.195Z,101401.34
2023-01-03T04:01:55.946Z,101412.85
2023-01-03T04:07:19.150Z,101427.22
2023-01-03T04:12:41.429Z,101428.73
2023-01-03T04:18:03.948Z,101445.48
2023-01-03T04:23:26.124Z,101440.72
2023-01-03T04:28:48.567Z,101447.17
2023-01-03T04:34:10.855Z,101438.67
2023-01-03T04:39:33.056Z,101446.19
2023-01-03T04:44:55.254Z,101449.89
2023-01-03T04:50:17.771Z,101459.91
2023-01-03T04:55:40.581Z,101470.59
2023-01-03T05:01:09.061Z,101458.34
2023-01-03T05:06:32.264Z,101480.58
2023-01-03T05:11:55.151Z,101474.20
2023-01-03T05:17:17.410Z,101483.33
2023-01-03T05:22:57.677Z,101495.97
2023-01-03T05:28:20.390Z,101498.92
2023-01-03T05:33:44.944Z,101501.94
2023-01-03T05:39:07.128Z,101521.28
2023-01-03T05:44:29.449Z,101523.16
2023-01-03T05:49:51.626Z,101535.50
2023-01-03T05:55:14.069Z,101545.42
2023-01-03T06:00:36.429Z,101544.16
2023-01-03T06:05:58.635Z,101559.14
2023-01-03T06:11:26.423Z,101558.20
2023-01-03T06:17:06.781Z,101564.47
2023-01-03T06:22:23.784Z,101570.60
2023-01-03T06:27:46.091Z,101575.47
2023-01-03T06:33:08.417Z,101590.14
2023-01-03T06:38:30.616Z,101587.86
2023-01-03T06:43:53.240Z,101587.56
2023-01-03T06:49:40.630Z,101607.05
2023-01-03T06:55:03.507Z,101608.55
2023-01-03T07:00:26.806Z,101627.73
2023-01-03T07:05:49.080Z,101625.50
2023-01-03T07:11:11.487Z,101637.44
2023-01-03T07:16:38.141Z,101638.65
2023-01-03T07:22:00.328Z,101655.84
2023-01-03T07:27:22.533Z,101659.02
2023-01-03T07:32:44.951Z,101669.20
2023-01-03T07:38:07.285Z,101672.06
2023-01-03T07:43:39.791Z,101680.11
2023-01-03T07:49:11.180Z,101692.28
2023-01-03T07:54:29.690Z,101692.83
2023-01-03T07:59:52.194Z,101694.17
2023-01-03T08:05:14.650Z,101696.77
2023-01-03T08:10:54.826Z,101699.37
2023-01-03T08:16:18.633Z,101718.88
2023-01-03T08:21:41.353Z,101718.94
2023-01-03T08:27:05.416Z,101738.45
2023-01-03T08:32:28.340Z,101709.75
2023-01-03T08:37:51.175Z,101720.12
2023-01-03T08:43:16.127Z,101720.72
2023-01-03T08:48:40.355Z,101733.72
2023-01-03T08:54:03.231Z,101741.50
2023-01-03T08:59:25.735Z,101753.67
2023-01-03T09:04:48.015Z,101767.62
2023-01-03T09:10:10.369Z,101761.20
2023-01-03T09:15:33.193Z,101759.28
2023-01-03T09:20:57.276Z,101783.91
2023-01-03T09:26:20.088Z,101757.97
2023-01-03T09:31:42.528Z,101776.44
2023-01-03T09:37:04.841Z,101778.08
2023-01-03T09:42:48.616Z,101783.22
2023-01-03T09:48:12.812Z,101788.00
2023-01-03T09:54:02.616Z,101800.23
2023-01-03T09:59:53.435Z,101808.02
2023-01-03T10:05:21.667Z,101843.23
2023-01-03T10:11:02.428Z,101822.79
2023-01-03T10:16:48.608Z,101822.82
2023-01-03T10:22:32.763Z,101801.38
2023-01-03T10:27:59.647Z,101834.87
2023-01-03T10:33:50.550Z,101835.23
2023-01-03T10:39:24.003Z,101843.63
2023-01-03T10:44:48.200Z,101828.64
2023-01-03T10:50:14.665Z,101850.78
2023-01-03T10:55:38.179Z,101837.73
2023-01-03T11:01:01.202Z,101829.28
2023-01-03T11:06:27.981Z,101837.56
2023-01-03T11:12:00.714Z,101838.03
2023-01-03T11:17:26.618Z,101829.33
2023-01-03T11:23:08.078Z,101826.42
2023-01-03T11:28:41.107Z,101816.27
2023-01-03T11:40:23.893Z,101839.56
2023-01-03T11:46:19.580Z,101826.91
2023-01-03T11:51:55.466Z,101835.73
2023-01-03T11:57:22.538Z,101839.14
2023-01-03T12:03:23.186Z,101845.44
2023-01-03T12:08:50.840Z,101844.45
2023-01-03T12:14:26.991Z,101847.13
2023-01-03T12:25:50.540Z,101833.42
2023-01-03T12:31:38.012Z,101845.28
2023-01-03T12:37:08.982Z,101828.28
2023-01-03T12:42:39.309Z,101837.16
2023-01-03T12:48:19.051Z,101843.83
2023-01-03T12:54:25.667Z,101850.44
2023-01-03T13:00:14.484Z,101855.28
2023-01-03T13:05:56.093Z,101853.89
2023-01-03T13:11:29.068Z,101876.04
2023-01-03T13:16:57.861Z,101872.64
2023-01-03T13:22:42.955Z,101863.32
2023-01-03T13:28:30.786Z,101871.84
2023-01-03T13:34:15.460Z,101878.33
2023-01-03T13:45:39.850Z,101888.49
2023-01-03T13:51:22.792Z,101879.17
2023-01-03T13:56:59.124Z,101893.47
2023-01-03T14:02:32.529Z,101897.84
2023-01-03T14:08:21.867Z,101896.91
2023-01-03T14:13:57.094Z,101908.52
2023-01-03T14:19:41.301Z,101919.21
2023-01-03T14:25:10.782Z,101917.66
2023-01-03T14:30:44.362Z,101915.92
2023-01-03T14:36:22.706Z,101927.61
2023-01-03T14:41:56.163Z,101931.34
2023-01-03T14:47:21.589Z,101942.06
2023-01-03T14:52:47.624Z,101950.22
2023-01-03T14:58:12.568Z,101951.27
2023-01-03T15:03:38.385Z,101945.21
2023-01-03T15:09:04.889Z,101949.61
2023-01-03T15:14:30.715Z,101953.27
2023-01-03T15:19:56.438Z,101962.26
2023-01-03T15:25:35.164Z,101964.05
2023-01-03T15:31:02.025Z,101970.45
2023-01-03T15:36:26.538Z,101969.70
2023-01-03T15:42:42.985Z,101968.92
2023-01-03T15:47:36.948Z,101966.38
2023-01-03T15:53:00.052Z,101969.97
2023-01-03T15:58:23.005Z,101977.96
2023-01-03T16:03:47.482Z,101979.81
2023-01-03T16:09:10.285Z,101989.69
2023-01-03T16:14:37.497Z,102002.14
2023-01-03T16:19:59.950Z,102007.59
2023-01-03T16:25:25.999Z,102008.57
2023-01-03T16:30:49.082Z,102009.44
2023-01-03T16:36:12.649Z,102011.30
2023-01-03T16:41:35.055Z,102010.50
2023-01-03T16:46:58.106Z,102002.56
2023-01-03T16:52:22.734Z,102010.61
2023-01-03T16:57:50.201Z,102029.45
2023-01-03T17:03:09.107Z,102021.46
2023-01-03T17:08:50.121Z,102020.64
2023-01-03T17:14:16.389Z,102023.36
2023-01-03T17:20:03.273Z,102032.23
2023-01-03T17:25:04.985Z,102027.06
2023-01-03T17:30:29.830Z,102029.86
2023-01-03T17:35:53.351Z,102023.72
2023-01-03T17:41:17.487Z,102031.83
2023-01-03T17:46:58.962Z,102046.13
2023-01-03T17:52:26.161Z,102050.58
2023-01-03T17:57:48.807Z,102052.53
2023-01-03T18:03:12.273Z,102050.87
2023-01-03T18:08:37.569Z,102068.74
2023-01-03T18:14:01.458Z,102059.94
2023-01-03T18:19:24.184Z,102057.40
2023-01-03T18:24:47.867Z,102051.36
2023-01-03T18:30:10.523Z,102067.45
2023-01-03T18:35:38.060Z,102073.87
2023-01-03T18:41:04.805Z,102074.06
2023-01-03T18:46:29.468Z,102071.41
2023-01-03T18:51:52.519Z,102069.78
2023-01-03T18:57:17.102Z,102074.37
2023-01-03T19:02:42.067Z,102068.45
2023-01-03T19:08:06.892Z,102070.25
2023-01-03T19:13:54.684Z,102075.72
2023-01-03T19:19:18.398Z,102067.84
2023-01-03T19:24:47.042Z,102080.22
2023-01-03T19:30:11.393Z,102085.70
2023-01-03T19:35:34.645Z,102089.27
2023-01-03T19:40:58.360Z,102075.20
2023-01-03T19:46:23.131Z,102079.03
2023-01-03T19:51:45.664Z,102090.77
2023-01-03T19:57:10.698Z,102089.91
2023-01-03T20:02:43.362Z,102091.75
2023-01-03T20:08:11.763Z,102091.94
2023-01-03T20:13:38.122Z,102092.16
2023-01-03T20:19:00.455Z,102102.07
2023-01-03T20:24:32.831Z,102105.04
2023-01-03T20:29:56.124Z,102099.78
2023-01-03T20:40:45.121Z,102098.95
2023-01-03T20:46:10.230Z,102095.47
2023-01-03T20:51:32.636Z,102085.94
2023-01-03T20:56:54.996Z,102095.25
2023-01-03T21:02:17.936Z,102103.43
2023-01-03T21:08:00.935Z,102097.66
2023-01-03T21:13:24.045Z,102098.05
2023-01-03T21:18:46.302Z,102103.86
2023-01-03T21:24:08.598Z,102112.11
2023-01-03T21:29:31.343Z,102110.47
2023-01-03T21:34:53.784Z,102112.48
2023-01-03T21:40:26.060Z,102117.73
2023-01-03T21:45:53.693Z,102118.20
2023-01-03T21:51:28.638Z,102131.50
2023-01-03T21:56:46.415Z,102135.58
2023-01-03T22:02:27.119Z,102134.85
2023-01-03T22:07:43.618Z,102136.83
2023-01-03T22:13:09.775Z,102144.26
2023-01-03T22:18:32.128Z,102136.59
2023-01-03T22:23:55.212Z,102134.98
2023-01-03T22:29:17.535Z,102148.27
2023-01-03T22:34:39.792Z,102145.67
2023-01-03T22:40:02.562Z,102147.59
2023-01-03T22:45:25.735Z,102142.47
2023-01-03T22:50:48.775Z,102136.38
2023-01-03T22:56:11.855Z,102138.02
2023-01-03T23:01:36.003Z,102135.36
2023-01-03T23:06:59.611Z,102132.72
2023-01-03T23:12:39.577Z,102135.34
2023-01-03T23:18:01.812Z,102129.27
2023-01-03T23:23:24.618Z,102140.72
2023-01-03T23:28:46.928Z,102145.13
2023-01-03T23:34:10.192Z,102146.91
2023-01-03T23:39:34.364Z,102145.23
2023-01-03T23:44:56.654Z,102147.02
2023-01-03T23:50:19.014Z,102133.80
2023-01-03T23:55:42.503Z,102141.75
